Reportages photos

Connexion

15 Km

15 Km Trail des Coteaux de l'Aa du 14/06/15 (Reelle 15)
Rang Dossard Nom Prénom Temps Cat Rang Cat Ecart Ecart Cat Club Vitesse Km/h Temps au Km
1 335 THESSE DAVID 01:11:34 SEM 1 00:00:00 00:00:00 AC AUDOMAROIS 12,576 04:46
2 81 DEBROUCKE ROMAIN 01:13:04 SEM 2 00:01:30 00:01:30 U S M V 12,318 04:52
3 366 DUCLOY CYPRIEN 01:15:09 SEM 3 00:03:35 00:03:35 NON LICENCIE 11,976 05:01
4 160 HADOUX EMMANUEL 01:16:24 SEM 4 00:04:50 00:04:50 RUNNING CLUB DES MONTS 11,780 05:06
5 358 LEFEBVRE THOMAS 01:16:25 V1M 1 00:04:51 00:00:00 11,778 05:06
6 118 DUCROCQ THOMAS 01:17:37 SEM 5 00:06:03 00:06:03 11,595 05:10
7 35 BOISLEUX ARTHUR 01:17:39 ESM 1 00:06:05 00:00:00 FABULOUS TEAM 11,590 05:11
8 58 CARTERON ERIC 01:17:54 V1M 2 00:06:20 00:01:29 11,553 05:12
9 119 DUCROCQ MARC ANTOINE 01:18:19 SEM 6 00:06:45 00:06:45 11,492 05:13
10 7 ANSEL JEROME 01:18:23 V1M 3 00:06:49 00:01:58 11,482 05:14
11 260 RAIMOND FREDERIC 01:18:25 SEM 7 00:06:51 00:06:51 A S R H V 11,477 05:14
12 46 BRUNEL JEAN FRANCOIS 01:20:01 V1M 4 00:08:27 00:03:36 ST MARTIN ATHLETISME 11,248 05:20
13 337 DUCLOY KEVIN 01:20:01 SEM 8 00:08:27 00:08:27 SAINT MARTIN ATHLETISME 11,248 05:20
14 252 PEREZ RAFAEL 01:20:59 SEM 9 00:09:25 00:09:25 RUNNING CLUB DES MONTS 11,113 05:24
15 1 ADELMANT ALEXIS 01:21:03 V1M 5 00:09:29 00:04:38 A S P T T LILLE 11,104 05:24
16 332 PRUVOST LUCAS 01:22:32 JUM 1 00:10:58 00:00:00 10,905 05:30
17 398 MATHIEU DAMIEN 01:23:08 V1M 6 00:11:34 00:06:43 10,826 05:33
18 63 CHAPELET DANIEL 01:24:46 V1M 7 00:13:12 00:08:21 10,617 05:39
19 202 LEFEBVRE DAMIEN 01:24:51 SEM 10 00:13:17 00:13:17 ATSCAF DUNKERQUE 10,607 05:39
20 61 CAZIER BENJAMIN 01:24:58 SEM 11 00:13:24 00:13:24 10,592 05:40
21 328 DUFOUR DAVID 01:25:38 V1M 8 00:14:04 00:09:13 10,510 05:43
22 74 DACQUIN FABIEN 01:27:00 V1M 9 00:15:26 00:10:35 TEAM TRAIL 62 10,345 05:48
23 344 BOURDON CYRILLE 01:27:02 SEM 12 00:15:28 00:15:28 TEAM TRAIL 62 10,341 05:48
24 31 PAINDAVOINE FABIEN 01:27:17 SEM 13 00:15:43 00:15:43 A S P T T LILLE 10,311 05:49
25 47 BRUNEL STEPHANE 01:27:46 V1M 10 00:16:12 00:11:21 A C OUTREAU 10,254 05:51
26 28 BLANQUART YOANN 01:27:51 SEM 14 00:16:17 00:16:17 10,245 05:51
27 177 JOETS MAXENCE 01:28:05 JUM 2 00:16:31 00:05:33 10,218 05:52
28 140 GALVAIRE ROMAIN 01:28:19 JUM 3 00:16:45 00:05:47 U S A LIEVIN 10,191 05:53
29 370 DELEPINE SEBASTIEN 01:28:35 SEM 15 00:17:01 00:17:01 10,160 05:54
30 188 LAOUER AMAR 01:28:52 V1M 11 00:17:18 00:12:27 E S ARQUES 10,128 05:55
31 396 MARCOURT GEOFFRAY 01:29:06 SEM 16 00:17:32 00:17:32 NON LICENCIE 10,101 05:56
32 312 VEREECKE VALENTIN 01:29:22 SEM 17 00:17:48 00:17:48 10,071 05:57
33 110 DEVOS FABIEN 01:29:27 SEM 18 00:17:53 00:17:53 10,061 05:58
34 284 SAINT MAXENT AURELIEN 01:29:36 SEM 19 00:18:02 00:18:02 10,045 05:58
35 111 DEVOS FLORIAN 01:29:43 CAM 1 00:18:09 00:00:00 E S ARQUES 10,032 05:59
36 340 BIGI JOHANN 01:30:06 SEM 20 00:18:32 00:18:32 NON LICENCIE 9,989 06:00
37 308 VANDAELE BENOIT 01:30:10 SEM 21 00:18:36 00:18:36 COURIR DANS LE LUMBROIS 9,982 06:01
38 372 JOSEPH VINCENT 01:30:12 SEM 22 00:18:38 00:18:38 9,978 06:01
39 17 BARROIS ALEXANDRE 01:30:12 SEM 23 00:18:38 00:18:38 9,978 06:01
40 231 MAZZOLI FRANCOIS 01:30:26 SEM 24 00:18:52 00:18:52 9,952 06:02
41 173 HUGUET XAVIER 01:30:28 V1M 12 00:18:54 00:14:03 9,948 06:02
42 180 JURAS RICHARD 01:30:32 V2M 1 00:18:58 00:00:00 U S VALENCIENNES 9,941 06:02
43 324 WILLEMAND ERIC 01:31:10 SEM 25 00:19:36 00:19:36 NON LICENCIE 9,872 06:05
44 380 MILO SEBASTIEN 01:31:13 CAM 2 00:19:39 00:01:30 NON LICENCIE 9,867 06:05
45 696 ROUSSEAU JULIEN 01:31:24 SEM 26 00:19:50 00:19:50 9,847 06:06
46 44 BRIEZ CYRILLE 01:32:23 SEM 27 00:20:49 00:20:49 9,742 06:10
47 40 BOUGAMONT JULIEN 01:32:23 SEM 28 00:20:49 00:20:49 9,742 06:10
48 314 VIEQUE ROMAIN 01:32:46 SEM 29 00:21:12 00:21:12 9,702 06:11
49 69 COLIN FREDERIC 01:33:49 V1M 13 00:22:15 00:17:24 9,593 06:15
50 311 VERBREGUE BENOIT 01:33:50 SEM 30 00:22:16 00:22:16 9,591 06:15
51 203 LEFRANC OLIVIER 01:33:50 V1M 14 00:22:16 00:17:25 ST MARTIN ATHLETISME 9,591 06:15
52 163 HARDOUIN JEAN FRANCOIS 01:34:26 V1M 15 00:22:52 00:18:01 ST MARTIN ATHLETISME 9,531 06:18
53 39 BOUCAULT JULIEN 01:34:27 SEM 31 00:22:53 00:22:53 9,529 06:18
54 349 MARTIN YANNICK 01:35:47 SEM 32 00:24:13 00:24:13 NON LICENCIE 9,396 06:23
55 117 DOUILLET ANTOINE 01:36:13 SEM 33 00:24:39 00:24:39 9,354 06:25
56 315 VIS MICHAEL 01:36:16 V1M 16 00:24:42 00:19:51 9,349 06:25
57 272 ROCQ NICOLAS 01:36:18 SEM 34 00:24:44 00:24:44 9,346 06:25
58 249 OURDOUILLIE CHRISTOPHE 01:36:19 SEM 35 00:24:45 00:24:45 9,344 06:25
59 89 DECOENE STEPHANE 01:36:44 V1M 17 00:25:10 00:20:19 J C B B 9,304 06:27
60 239 MUDES FANNY 01:36:49 SEF 1 00:25:15 00:00:00 9,296 06:27
61 167 HENNUYER CHRISTIAN 01:36:50 SEM 36 00:25:16 00:25:16 TEAM TIERS FOU 9,294 06:27
62 387 ESTAMPES FRANCOIS 01:36:52 SEM 37 00:25:18 00:25:18 NON LICENCIE 9,291 06:27
63 171 HONORE REMY 01:36:57 SEM 38 00:25:23 00:25:23 JOGGING CLUB LICQUOIS 9,283 06:28
64 102 DEMARTHE LUDOVIC 01:36:58 V1M 18 00:25:24 00:20:33 A S U D 9,282 06:28
65 124 DUTHILLEUL GUILLAUME 01:36:59 SEM 39 00:25:25 00:25:25 A O CHARENTON 9,280 06:28
66 234 MONTAGNE PAUL 01:37:00 SEM 40 00:25:26 00:25:26 CHTIS COUREURS BAVINCHOVE 9,278 06:28
67 336 BULTE CLEMENT 01:37:09 SEM 41 00:25:35 00:25:35 AC AUDOMAROIS 9,264 06:29
68 114 DEWALLE LAURENT 01:37:12 SEM 42 00:25:38 00:25:38 9,259 06:29
69 217 LEVEL EDDY 01:37:14 V1M 19 00:25:40 00:20:49 9,256 06:29
70 30 BLED NICOLAS 01:37:21 V2M 2 00:25:47 00:06:49 A S COQUELLES 9,245 06:29
71 9 AZELART BENOIT 01:37:35 SEM 43 00:26:01 00:26:01 9,223 06:30
72 62 CHAMBION NICOLAS 01:37:57 SEM 44 00:26:23 00:26:23 9,188 06:32
73 285 SALINGUE LOIC 01:38:41 SEM 45 00:27:07 00:27:07 9,120 06:35
74 205 LEGAY HENRI 01:38:44 V2M 3 00:27:10 00:08:12 COURIR DANS LE LUMBROIS 9,115 06:35
75 233 MIEZE ROMUALD 01:39:02 SEM 46 00:27:28 00:27:28 A S U D 9,088 06:36
76 390 DENOUAL ROMAIN 01:39:14 SEM 47 00:27:40 00:27:40 NON LICENCIE 9,070 06:37
77 129 FASQUEL VINCENT 01:39:23 SEM 48 00:27:49 00:27:49 9,056 06:38
78 213 LEROY ARNAUD 01:39:25 SEM 49 00:27:51 00:27:51 9,053 06:38
79 320 WIART SEBASTIEN 01:39:34 SEM 50 00:28:00 00:28:00 9,039 06:38
80 321 WIART SYLVAIN 01:39:36 V1M 20 00:28:02 00:23:11 9,036 06:38
81 19 BATAILLE ERIC 01:39:46 V1M 21 00:28:12 00:23:21 9,021 06:39
82 83 DECOBERT SIMON 01:40:10 SEM 51 00:28:36 00:28:36 V A F A 8,985 06:41
83 53 CALOONNE ALEXANDRE 01:40:30 SEM 52 00:28:56 00:28:56 8,955 06:42
84 93 DECUPPER JEAN SEBASTIEN 01:40:31 V1M 22 00:28:57 00:24:06 COURIR DANS LE LUMBROIS 8,954 06:42
85 128 FALEMPIN SYLVAIN 01:41:14 V1M 23 00:29:40 00:24:49 TEAM TRAIL 62 8,890 06:45
86 29 BLARET LAURENT 01:41:17 V1M 24 00:29:43 00:24:52 8,886 06:45
87 36 BOSSARD JEAN MICHEL 01:41:28 V2M 4 00:29:54 00:10:56 8,870 06:46
88 187 LAMPE HEUBERT 01:41:36 SEM 53 00:30:02 00:30:02 8,858 06:46
89 179 JOYEZ FREDERIC 01:41:38 SEM 54 00:30:04 00:30:04 8,855 06:47
90 178 JOLY GILBERT 01:41:48 V1M 25 00:30:14 00:25:23 COURIR DANS LE LUMBROIS 8,841 06:47
91 208 LEMAIRE MAXIME 01:42:00 V1M 26 00:30:26 00:25:35 8,824 06:48
92 333 PRUVOST NATHALIE 01:42:03 V1F 1 00:30:29 00:00:00 8,819 06:48
93 133 FOURNIER GUY 01:43:01 V3M 1 00:31:27 00:00:00 COURIR DANS LE LUMBROIS 8,736 06:52
94 359 COLL CHARLES 01:43:03 CAM 3 00:31:29 00:13:20 NON LICENCIE 8,734 06:52
95 24 BERNARD NATHALIE 01:43:03 SEF 2 00:31:29 00:06:14 U S VALENCIENNES 8,734 06:52
96 48 BRUNEL SERGE 01:43:06 V3M 2 00:31:32 00:00:05 ST MARTIN ATHLETISME 8,729 06:52
97 382 LOOTGIETER REMI 01:44:01 SEM 55 00:32:27 00:32:27 NON LICENCIE 8,652 06:56
98 248 OGUET GREGORY 01:44:23 SEM 56 00:32:49 00:32:49 8,622 06:58
99 343 FALEUR XAVIER 01:44:30 V1M 27 00:32:56 00:28:05 NON LICENCIE 8,612 06:58
100 82 DECAMPS JEROME 01:44:33 V1M 28 00:32:59 00:28:08 8,608 06:58
101 49 BRUTSAERT FRANCK 01:44:43 V1M 29 00:33:09 00:28:18 A S U D 8,595 06:59
102 101 DELVOYE LUC 01:44:47 V2M 5 00:33:13 00:14:15 8,589 06:59
103 8 AUZOU JEAN PAUL 01:44:55 V2M 6 00:33:21 00:14:23 8,578 07:00
104 12 BAILLY AURELIE 01:45:02 SEF 3 00:33:28 00:08:13 COURIR DANS LE LUMBROIS 8,569 07:00
105 5 ANANI VINCENT 01:45:14 V1M 30 00:33:40 00:28:49 V A F A 8,552 07:01
106 305 VANDAELE LIONEL 01:45:47 V1M 31 00:34:13 00:29:22 8,508 07:03
107 391 DULIEU ROMAIN 01:46:06 SEM 57 00:34:32 00:34:32 NON LICENCIE 8,483 07:04
108 330 COEUGNET THOMAS 01:46:08 ESM 2 00:34:34 00:28:29 8,480 07:05
109 375 DUVIN ESTELLE 01:46:27 JUF 1 00:34:53 00:00:00 8,455 07:06
110 244 NOVASIK LUC 01:46:27 V1M 32 00:34:53 00:30:02 8,455 07:06
111 191 LEBAS ERIC 01:46:27 V1M 33 00:34:53 00:30:02 TEAM TRAIL 62 8,455 07:06
112 270 RINGOT DAVID 01:46:40 V1M 34 00:35:06 00:30:15 8,438 07:07
113 157 GUILLON DELPHINE 01:47:12 SEF 4 00:35:38 00:10:23 A S P T T LILLE 8,396 07:09
114 278 RUBBENS JEAN YVES 01:47:13 V2M 7 00:35:39 00:16:41 8,394 07:09
115 348 DUFOSSE JOSE 01:47:13 V1M 35 00:35:39 00:30:48 NON LICENCIE 8,394 07:09
116 186 LAMBIN JORDY 01:47:16 SEM 58 00:35:42 00:35:42 A S P T T LILLE 8,390 07:09
117 158 GUYOT CHRISTOPHE 01:47:20 V1M 36 00:35:46 00:30:55 8,385 07:09
118 216 LESCUYER HERVE 01:47:27 V1M 37 00:35:53 00:31:02 RIO TINTO 8,376 07:10
119 138 FRUCQUET DAVID 01:47:28 V1M 38 00:35:54 00:31:03 8,375 07:10
120 310 VANGOETHEM FABRICE 01:47:29 V2M 8 00:35:55 00:16:57 8,373 07:10
121 342 VAUTION FABRICE 01:47:32 V1M 39 00:35:58 00:31:07 O ASIA 8,369 07:10
122 34 BOIDIN DIDIER 01:47:37 V2M 9 00:36:03 00:17:05 8,363 07:10
123 347 COHEN-SOLAL LAURENCE 01:47:52 V2F 1 00:36:18 00:00:00 JOGGING CLUB LICQUOIS 8,344 07:11
124 367 FINDINIER CHRISTOPHE 01:48:28 SEM 59 00:36:54 00:36:54 NON LICENCIE 8,297 07:14
125 365 POULAIN GREGORY 01:48:32 SEM 60 00:36:58 00:36:58 NON LICENCIE 8,292 07:14
126 184 KOSZTUR MARYSE 01:49:26 V1F 2 00:37:52 00:07:23 8,224 07:18
127 241 NESTORET FRANCK 01:49:28 SEM 61 00:37:54 00:37:54 8,222 07:18
128 84 DECOCQ CHRISTOPHE 01:49:38 SEM 62 00:38:04 00:38:04 8,209 07:19
129 116 DJOUADI FOUZIA 01:50:01 SEF 5 00:38:27 00:13:12 A S P T T LILLE 8,181 07:20
130 60 CASTIER PHILIPPE 01:50:03 V2M 10 00:38:29 00:19:31 BOUSSOLE AUDOMAROISE 8,178 07:20
131 381 LOOTGIETER PHILIPPE 01:50:07 V2M 11 00:38:33 00:19:35 NON LICENCIE 8,173 07:20
132 201 LEFEBVRE SEBASTIEN 01:50:32 SEM 63 00:38:58 00:38:58 8,142 07:22
133 256 PLATTEAU LOUIS 01:50:39 ESM 3 00:39:05 00:33:00 CHTIS COUREURS BAVINCHOVE 8,134 07:23
134 257 POLLART ROMAIN 01:50:51 SEM 64 00:39:17 00:39:17 8,119 07:23
135 21 BEAURAIN TANGUY 01:51:01 SEM 65 00:39:27 00:39:27 8,107 07:24
136 376 BEHAGUE SYLVAIN 01:51:02 SEM 66 00:39:28 00:39:28 8,106 07:24
137 121 DUMONT JEROME 01:51:16 V1M 40 00:39:42 00:34:51 8,089 07:25
138 238 MORVAN MATHILDE 01:51:23 SEF 6 00:39:49 00:14:34 8,080 07:26
139 73 CUPER REMI 01:51:52 SEM 67 00:40:18 00:40:18 8,045 07:27
140 108 DESHAYES SEBASTIEN 01:52:04 SEM 68 00:40:30 00:40:30 8,031 07:28
141 259 PRUDHOMME FRANCKY 01:52:05 V1M 41 00:40:31 00:35:40 COURIR DANS LE LUMBROIS 8,030 07:28
142 338 LARDENT ANTHONY 01:52:05 V1M 42 00:40:31 00:35:40 NON LICENCIE 8,030 07:28
143 27 BLANQUART PATRICK 01:52:19 V2M 12 00:40:45 00:21:47 8,013 07:29
144 362 DELIERS PATRICE 01:52:26 V1M 43 00:40:52 00:36:01 NON LICENCIE 8,005 07:30
145 300 VAILLANT FRANCOIS 01:53:20 ESM 4 00:41:46 00:35:41 TERNOIS 7,941 07:33
146 145 GIUDICI PIERRE 01:53:23 SEM 69 00:41:49 00:41:49 A S P T T LILLE 7,938 07:34
147 246 OGES NICOLAS 01:53:58 V1M 44 00:42:24 00:37:33 7,897 07:36
148 189 LAUDE MAGALI 01:53:58 SEF 7 00:42:24 00:17:09 ELAN FRUGEOIS 7,897 07:36
149 360 LOPPINET REMI 01:54:02 V1M 45 00:42:28 00:37:37 NON LICENCIE 7,892 07:36
150 172 HORAK STEPHANE 01:54:04 V1M 46 00:42:30 00:37:39 RIO TINTO 7,890 07:36
151 22 BECUWE DAVID 01:54:22 V1M 47 00:42:48 00:37:57 LES COP 1 D ABORD 7,869 07:37
152 392 DELATTRE BRUNO 01:54:28 V3M 3 00:42:54 00:11:27 NON LICENCIE 7,863 07:38
153 197 LEDEZ FABRICE 01:54:36 V1M 48 00:43:02 00:38:11 7,853 07:38
154 45 BRODEL LAURENT 01:55:10 SEM 70 00:43:36 00:43:36 A S U D 7,815 07:41
155 14 BAK LUCILLE 01:55:14 SEF 8 00:43:40 00:18:25 7,810 07:41
156 355 LACROIX FRANCOIS 01:55:21 V1M 49 00:43:47 00:38:56 7,802 07:41
157 364 FREMEAUX YVAN 01:55:22 V2M 13 00:43:48 00:24:50 NON LICENCIE 7,801 07:41
158 262 RATAJCZACK MANO 01:55:24 SEF 9 00:43:50 00:18:35 7,799 07:42
159 313 VIDOR CHRISTOPHE 01:56:14 V2M 14 00:44:40 00:25:42 COURIR DANS LE LUMBROIS 7,743 07:45
160 123 DUPUIS ADRIEN 01:56:18 SEM 71 00:44:44 00:44:44 7,739 07:45
161 258 POTTIE YANNICK 01:56:29 SEM 72 00:44:55 00:44:55 7,726 07:46
162 293 SZRAMA CHRISTOPHE 01:57:55 V1M 50 00:46:21 00:41:30 TRAIL DES POILUS ASSOCIATION 7,633 07:52
163 54 CAPELLE JEAN FRANCOIS 01:58:13 SEM 73 00:46:39 00:46:39 7,613 07:53
164 267 RICHEZ THOMAS 01:58:29 SEM 74 00:46:55 00:46:55 7,596 07:54
165 276 ROUSSEL CHRISTIAN 01:58:34 V2M 15 00:47:00 00:28:02 F C BOURG 7,591 07:54
166 120 DUGAUGUEZ FREDERIC 01:59:03 V1M 51 00:47:29 00:42:38 7,560 07:56
167 190 LAURENT RAPHAEL 01:59:31 V1M 52 00:47:57 00:43:06 7,530 07:58
168 176 HURTREL CLEMENCE 01:59:37 SEF 10 00:48:03 00:22:48 7,524 07:58
169 150 GRANDSIR ANNE 01:59:37 SEF 11 00:48:03 00:22:48 7,524 07:58
170 265 REMY DAVID 01:59:39 SEM 75 00:48:05 00:48:05 VIA ALEKINA 7,522 07:59
171 23 BENCHOUKROUN PAUL 01:59:43 ESM 5 00:48:09 00:42:04 7,518 07:59
172 268 RICHEZ SIMON 01:59:52 SEM 76 00:48:18 00:48:18 7,508 07:59
173 10 BAELEN DAVID 02:00:04 V1M 53 00:48:30 00:43:39 A S U D 7,496 08:00
174 109 HERICOURT CHRISTIOPHE 02:00:25 V1M 54 00:48:51 00:44:00 7,474 08:02
175 151 GRAVE STEVE 02:00:27 V1M 55 00:48:53 00:44:02 7,472 08:02
176 383 DARRAS LAURENT 02:00:47 SEM 77 00:49:13 00:49:13 NON LICENCIE 7,451 08:03
177 292 SMAGGHE JOSE 02:01:12 V2M 16 00:49:38 00:30:40 LES COP 1 D ABORD 7,426 08:05
178 326 VAN LOMMEL ALAIN 02:01:14 V3M 4 00:49:40 00:18:13 7,424 08:05
179 214 LESCHAEVE NICOLAS 02:01:48 SEM 78 00:50:14 00:50:14 7,389 08:07
180 388 BOUREL CHRISTOPHE 02:02:13 V1M 56 00:50:39 00:45:48 NON LICENCIE 7,364 08:09
181 240 NARBEY OLIVIER 02:02:14 SEM 79 00:50:40 00:50:40 A S P T T LILLE 7,363 08:09
182 247 OGES CAROLINE 02:02:14 SEF 12 00:50:40 00:25:25 7,363 08:09
183 288 SCHOONHEERE JEAN BERNARD 02:02:27 V1M 57 00:50:53 00:46:02 O MAX TEAM 7,350 08:10
184 236 MORAUD JEAN YVES 02:03:17 V2M 17 00:51:43 00:32:45 S/L A C VILLENEUVE D' ASCQ 7,300 08:13
185 204 LEGAY EDOUARD 02:03:21 CAM 4 00:51:47 00:33:38 7,296 08:13
186 77 DAVID EMMANUEL 02:03:22 V1M 58 00:51:48 00:46:57 RUN ON LINE 7,295 08:13
187 57 CARON JEAN 02:03:22 V2M 18 00:51:48 00:32:50 7,295 08:13
188 243 NOMMESCH NICOLAS 02:03:26 SEM 80 00:51:52 00:51:52 7,291 08:14
189 55 CARDON AURELIEN 02:03:30 SEM 81 00:51:56 00:51:56 7,287 08:14
190 26 BERNARD STEPHANE 02:03:31 V1M 59 00:51:57 00:47:06 7,286 08:14
191 394 MOREL SEBASTIEN 02:03:48 SEM 82 00:52:14 00:52:14 NON LICENCIE 7,270 08:15
192 277 ROUX ALEXIA 02:04:35 SEF 13 00:53:01 00:27:46 A S P T T LILLE 7,224 08:18
193 346 NICOLE FABIEN 02:04:36 SEM 83 00:53:02 00:53:02 7,223 08:18
194 345 BONES MATHIEU 02:04:37 SEM 84 00:53:03 00:53:03 7,222 08:18
195 395 COMPIEGNE STEPHANE 02:04:38 SEM 85 00:53:04 00:53:04 NON LICENCIE 7,221 08:19
196 354 LEQUIEN BASTIEN 02:04:42 SEM 86 00:53:08 00:53:08 7,217 08:19
197 165 HAVIER SAMUEL 02:04:51 SEM 87 00:53:17 00:53:17 JEUNESSE CAPPELLOISE 7,209 08:19
198 91 DECOVEMACKER THOMAS 02:05:13 ESM 6 00:53:39 00:47:34 7,188 08:21
199 194 LECOMPTE EMILIE 02:05:14 SEF 14 00:53:40 00:28:25 V A F A 7,187 08:21
200 219 LEVIS JEROME 02:05:19 SEM 88 00:53:45 00:53:45 7,182 08:21
201 136 FOVELLE REGIS 02:05:21 V1M 60 00:53:47 00:48:56 7,180 08:21
202 286 SAPELIER BENEDICTE 02:06:03 V1F 3 00:54:29 00:24:00 7,140 08:24
203 227 MARGUET LUCIE 02:06:07 CAF 1 00:54:33 00:00:00 7,136 08:24
204 226 MARGUET CHRISTOPHE 02:06:09 V1M 61 00:54:35 00:49:44 7,134 08:25
205 341 LOUESSARD DAMIEN 02:06:12 SEM 89 00:54:38 00:54:38 NON LICENCIE 7,132 08:25
206 181 JUZNIC STEFAN 02:06:28 V1M 62 00:54:54 00:50:03 7,116 08:26
207 351 PRUDHOMME CHARLES 02:06:47 JUM 4 00:55:13 00:44:15 NL 7,099 08:27
208 200 LEFEBVRE MARC ANTOINE 02:07:10 SEM 90 00:55:36 00:55:36 7,077 08:29
209 273 ROLLIN THOMAS 02:07:23 SEM 91 00:55:49 00:55:49 7,065 08:30
210 377 LOONE GUILLAUME 02:07:27 V1M 63 00:55:53 00:51:02 7,062 08:30
211 32 BOCHU MICHEL 02:07:32 V2M 19 00:55:58 00:37:00 TERNOIS 7,057 08:30
212 141 GARENAUX FREDERIC 02:07:49 V3M 5 00:56:15 00:24:48 COURIR A COLEMBERT 7,041 08:31
213 319 WDOWIAK OLIVIER 02:07:57 V1M 64 00:56:23 00:51:32 7,034 08:32
214 291 SMAGGHE MURIEL 02:07:57 V2F 2 00:56:23 00:20:05 LES COP 1 D ABORD 7,034 08:32
215 134 FOURNIER THIERRY 02:08:39 SEM 92 00:57:05 00:57:05 6,996 08:35
216 309 VANDERBEKEN YANNICK 02:09:04 V1M 65 00:57:30 00:52:39 A S U D 6,973 08:36
217 353 LEICHT THEO 02:09:11 JUM 5 00:57:37 00:46:39 NON LICENCIE 6,967 08:37
218 299 VAILLANT PATRICE 02:09:38 V2M 20 00:58:04 00:39:06 TERNOIS 6,943 08:39
219 255 PLATEL SOPHIE 02:09:48 SEF 15 00:58:14 00:32:59 6,934 08:39
220 325 TERNOY ALAIN 02:09:51 V1M 66 00:58:17 00:53:26 6,931 08:39
221 147 GOEDEFROYE RENAUD 02:10:03 ESM 7 00:58:29 00:52:24 6,920 08:40
222 148 GOMEZ VALENTIN 02:10:42 SEM 93 00:59:08 00:59:08 TEAM TRAIL 62 6,886 08:43
223 99 DELORRIER BERNARD 02:10:47 V2M 21 00:59:13 00:40:15 LES COP 1 D ABORD 6,882 08:43
224 384 VISEUX ANDY 02:10:50 SEM 94 00:59:16 00:59:16 NON LICENCIE 6,879 08:43
225 385 POLART FABIEN 02:10:52 SEM 95 00:59:18 00:59:18 NON LICENCIE 6,877 08:43
226 215 LESCHAEVE DAVID 02:11:04 SEM 96 00:59:30 00:59:30 6,867 08:44
227 64 CHARPENTIER FLORIAN 02:11:04 SEM 97 00:59:30 00:59:30 6,867 08:44
228 169 DEVEYER CLEMENT 02:11:09 ESM 8 00:59:35 00:53:30 6,862 08:45
229 4 AMMELOOT GUILLAUME 02:11:15 SEM 98 00:59:41 00:59:41 6,857 08:45
230 166 HEMBERGER JEROME 02:11:44 SEM 99 01:00:10 01:00:10 6,832 08:47
231 352 LESCIEUX GREGORY 02:11:56 V1M 67 01:00:22 00:55:31 NON LICENCIE 6,822 08:48
232 90 DECOVEMACKER ALAIN 02:11:56 V2M 22 01:00:22 00:41:24 6,822 08:48
233 282 SAINT GEORGE FRANCK 02:12:30 V1M 68 01:00:56 00:56:05 ST MARTIN ATHLETISME 6,792 08:50
234 283 SAINT GEORGE SYLVIE 02:12:32 V1F 4 01:00:58 00:30:29 ST MARTIN ATHLETISME 6,791 08:50
235 132 FOULON OLIVIER 02:12:58 V1M 69 01:01:24 00:56:33 6,769 08:52
236 130 FAUVEL YANN 02:13:00 V1M 70 01:01:26 00:56:35 6,767 08:52
237 33 BOCQUET VINCENT 02:13:39 V1M 71 01:02:05 00:57:14 6,734 08:55
238 146 GOBERT GILLES 02:13:43 V2M 23 01:02:09 00:43:11 6,731 08:55
239 139 GADENNE MARIE 02:13:47 SEF 16 01:02:13 00:36:58 A S P T T LILLE 6,727 08:55
240 303 VALLERAND ERIKA 02:13:47 SEF 17 01:02:13 00:36:58 6,727 08:55
241 237 MORTIER FREDERIC 02:13:58 SEM 100 01:02:24 01:02:24 6,718 08:56
242 393 WASIAK RICHARD 02:14:14 V1M 72 01:02:40 00:57:49 NON LICENCIE 6,705 08:57
243 196 LECUYER AURELIE 02:14:32 SEF 18 01:02:58 00:37:43 6,690 08:58
244 222 MAERTENS KARINE 02:14:32 SEM 101 01:02:58 01:02:58 6,690 08:58
245 174 HULLEBROUCK SYLVAIN 02:14:35 V1M 73 01:03:01 00:58:10 U S LEFFRINCKOUCKE 6,687 08:58
246 25 BERNARD JOSIANE 02:14:36 V1F 5 01:03:02 00:32:33 6,686 08:58
247 79 DEBLOUCKE PATRICE 02:14:38 V3M 6 01:03:04 00:31:37 A S U D 6,685 08:59
248 106 DERUEL PIERRE 02:15:05 SEM 102 01:03:31 01:03:31 6,663 09:00
249 135 FOUTRY MATTHIEU 02:15:13 SEM 103 01:03:39 01:03:39 6,656 09:01
250 274 ROSEY JEROME 02:15:50 V1M 74 01:04:16 00:59:25 6,626 09:03
251 281 RYCKEBUSCH SYLVIE 02:15:56 V2F 3 01:04:22 00:28:04 6,621 09:04
252 199 LEDUC MARIE LAURE 02:16:15 SEF 19 01:04:41 00:39:26 TEAM TRAIL 62 6,606 09:05
253 198 LEDUC JEAN MAURICE 02:16:15 SEM 104 01:04:41 01:04:41 TEAM TRAIL 62 6,606 09:05
254 159 GUYOT MAXIME 02:16:17 SEM 105 01:04:43 01:04:43 6,604 09:05
255 42 BOULOIS SYLVAIN 02:16:19 V1M 75 01:04:45 00:59:54 CHTIS COUREURS BAVINCHOVE 6,602 09:05
256 361 HARLE JOHAN 02:16:23 V1M 76 01:04:49 00:59:58 NON LICENCIE 6,599 09:06
257 38 BOTTEIN BRUNO 02:16:42 V2M 24 01:05:08 00:46:10 A S U D 6,584 09:07
258 327 BECART BERNARD 02:16:42 V2M 25 01:05:08 00:46:10 6,584 09:07
259 175 HURET GUILLAUME 02:16:44 SEM 106 01:05:10 01:05:10 6,582 09:07
260 224 MANENT STEPHANIE 02:16:47 V1F 6 01:05:13 00:34:44 6,580 09:07
261 371 PERARD KEVIN 02:17:11 SEM 107 01:05:37 01:05:37 6,561 09:09
262 72 CRESPIN NICOLAS 02:17:12 V1M 77 01:05:38 01:00:47 6,560 09:09
263 65 CLERBOUT MARC 02:17:17 V2M 26 01:05:43 00:46:45 6,556 09:09
264 211 LEQUIEN NICOLAS 02:17:19 SEM 108 01:05:45 01:05:45 6,554 09:09
265 350 NOWAK PATRICE 02:18:13 V1M 78 01:06:39 01:01:48 NON LICENCIE 6,512 09:13
266 386 PETIT BENJAMIN 02:18:13 SEM 109 01:06:39 01:06:39 NON LICENCIE 6,512 09:13
267 368 DWORALZEK MATHIAS 02:18:20 SEM 110 01:06:46 01:06:46 NON LICENCIE 6,506 09:13
268 43 BRACQBIEN MAXIME 02:18:21 SEM 111 01:06:47 01:06:47 6,505 09:13
269 378 DELAETER JOSEPH 02:18:23 ESM 9 01:06:49 01:00:44 NON LICENCIE 6,504 09:14
270 379 DELAETER EMMANUEL 02:18:24 SEM 112 01:06:50 01:06:50 NON LICENCIE 6,503 09:14
271 162 HANOTTE VINCENT 02:18:41 SEM 113 01:07:07 01:07:07 6,490 09:15
272 50 BUCKMAN LAETITIA 02:19:00 SEF 20 01:07:26 00:42:11 CAPONORD 6,475 09:16
273 356 CHANCEAU DELPHINE 02:19:04 SEF 21 01:07:30 00:42:15 6,472 09:16
274 357 DESRUMEAUX PAUL-ANTOINE 02:19:06 SEM 114 01:07:32 01:07:32 6,470 09:16
275 230 MATHIEU VIRGINIE 02:19:50 V1F 7 01:08:16 00:37:47 6,436 09:19
276 66 COEUGNET CAROLINE 02:19:53 SEF 22 01:08:19 00:43:04 6,434 09:20
277 2 ALLART MATHIEU 02:22:08 SEM 115 01:10:34 01:10:34 6,332 09:29
278 363 SAMELOT VINCENT 02:22:18 SEM 116 01:10:44 01:10:44 NON LICENCIE 6,325 09:29
279 13 BAILLY ISABELLE 02:22:35 V1F 8 01:11:01 00:40:32 AMICALE LE DRAPEAU 6,312 09:30
280 142 GEORGES LUCILE 02:22:38 SEF 23 01:11:04 00:45:49 6,310 09:31
281 97 DELHELLE XAVIER 02:22:39 SEM 117 01:11:05 01:11:05 6,309 09:31
282 334 JONNART SABRINA 02:22:47 SEF 24 01:11:13 00:45:58 6,303 09:31
283 322 WIERRE SEVERINE 02:23:32 SEF 25 01:11:58 00:46:43 A C CAPELLOIS 6,270 09:34
284 297 THERY MARTINE 02:23:35 V2F 4 01:12:01 00:35:43 TEAM TRAIL 62 6,268 09:34
285 86 DECOENE HORTENSE 02:23:36 ESF 1 01:12:02 00:00:00 6,267 09:34
286 94 DELANGUE NICOLAS 02:24:12 V1M 79 01:12:38 01:07:47 6,241 09:37
287 280 RUISSEAU EMMANUEL 02:24:12 V1M 80 01:12:38 01:07:47 Z TRAILERZ 6,241 09:37
288 302 VALLARD AMELIE 02:24:27 SEF 26 01:12:53 00:47:38 6,231 09:38
289 51 BUTOR GRETELLE 02:24:28 SEF 27 01:12:54 00:47:39 6,230 09:38
290 76 DAUCHEZ JOCELYNE 02:24:36 V1F 9 01:13:02 00:42:33 6,224 09:38
291 373 DEMASSIET MICHAEL 02:24:39 V1M 81 01:13:05 01:08:14 NON LICENCIE 6,222 09:39
292 59 CASTEL LAETITIA 02:25:02 SEF 28 01:13:28 00:48:13 6,205 09:40
293 192 LECIGNE DIDIER 02:25:02 V2M 27 01:13:28 00:54:30 O A HAZEBROUCK 6,205 09:40
294 67 COEUIGNART THOMAS 02:25:35 SEM 118 01:14:01 01:14:01 6,182 09:42
295 80 DEBROUCKE CHARLOTTE 02:25:36 SEM 119 01:14:02 01:14:02 6,181 09:42
296 206 LEGER GILLES 02:25:48 V2M 28 01:14:14 00:55:16 ATHLE RUNNING 6,173 09:43
297 307 VANDAELE JEANNE 02:25:50 ESF 2 01:14:16 00:02:14 6,171 09:43
298 164 HAUTSON LAURENT 02:26:04 V1M 82 01:14:30 01:09:39 6,162 09:44
299 250 PEENAERT XAVIER 02:26:17 V1M 83 01:14:43 01:09:52 6,152 09:45
300 317 VITSE GISELE 02:26:35 V2F 5 01:15:01 00:38:43 6,140 09:46
301 107 DESCAMPS GREGORY 02:26:44 V1M 84 01:15:10 01:10:19 6,134 09:47
302 251 PEIGNE VERONIQUE 02:26:52 V2F 6 01:15:18 00:39:00 6,128 09:47
303 103 DEMOULIN FRANCK 02:26:54 V1M 85 01:15:20 01:10:29 TERNOIS 6,127 09:48
304 161 HALLU THIBAULT 02:27:22 SEM 120 01:15:48 01:15:48 6,107 09:49
305 207 LEGRAND JEROME 02:27:25 SEM 121 01:15:51 01:15:51 6,105 09:50
306 183 KERCKHOVE FABIEN 02:28:13 V1M 86 01:16:39 01:11:48 6,072 09:53
307 223 MALFIGAN XAVIER 02:28:13 V2M 29 01:16:39 00:57:41 6,072 09:53
308 126 DYCKE LAURENT 02:28:13 V1M 87 01:16:39 01:11:48 6,072 09:53
309 220 LOUVET SYLVIE 02:28:19 V1F 10 01:16:45 00:46:16 R C BLENDECQUES 6,068 09:53
310 168 HERAULT CAROLINE 02:28:19 V1F 11 01:16:45 00:46:16 R C BLENDECQUES 6,068 09:53
311 37 BOSSART MICHEL 02:28:37 V2M 30 01:17:03 00:58:05 6,056 09:54
312 225 MANT GABRIEL 02:28:49 SEM 122 01:17:15 01:17:15 6,048 09:55
313 71 COTTIGNY MAXIME 02:29:14 SEM 123 01:17:40 01:17:40 6,031 09:57
314 100 DELVART FRANCOIS 02:29:43 SEM 124 01:18:09 01:18:09 6,011 09:59
315 155 GRIMBERT MELODIE 02:29:56 SEF 29 01:18:22 00:53:07 6,003 10:00
316 154 GRIMBERT HERVE 02:29:56 V2M 31 01:18:22 00:59:24 T A D 6,003 10:00
317 193 LECLUSE ADRIEN 02:29:57 SEM 125 01:18:23 01:18:23 6,002 10:00
318 149 GRANDSIR SYLVAIN 02:30:30 V1M 88 01:18:56 01:14:05 5,980 10:02
319 261 RAMON PIERRE 02:30:34 SEM 126 01:19:00 01:19:00 O MAX TEAM 5,977 10:02
320 18 BARTHELEMY JULIE 02:30:40 SEF 30 01:19:06 00:53:51 5,973 10:03
321 221 LUCAS GUY 02:30:52 V3M 7 01:19:18 00:47:51 CEUX DU LAC 5,966 10:03
322 95 DELANNOYE STEPHANIE 02:31:34 V1F 12 01:20:00 00:49:31 A S U D 5,938 10:06
323 294 TASSART HELENE 02:32:12 SEF 31 01:20:38 00:55:23 5,913 10:09
324 218 LEVEQUE MEHDI 02:32:26 SEM 127 01:20:52 01:20:52 5,904 10:10
325 131 FLOUR JEREMY 02:32:26 SEM 128 01:20:52 01:20:52 5,904 10:10
326 331 D'HUBERT FRANCE 02:33:04 V1F 13 01:21:30 00:51:01 5,880 10:12
327 306 VANDAELE SYLVIE 02:33:43 V2F 7 01:22:09 00:45:51 5,855 10:15
328 329 FOUBERT NICOLAS 02:34:19 SEM 129 01:22:45 01:22:45 5,832 10:17
329 242 NOLOT ESTELLE 02:34:57 SEF 32 01:23:23 00:58:08 5,808 10:20
330 271 RISSELIN JEAN FRANCOIS 02:35:29 SEM 130 01:23:55 01:23:55 A S ESTREES LES CRECY 5,788 10:22
331 185 LAMARD FREDERIC 02:35:31 V1M 89 01:23:57 01:19:06 5,787 10:22
332 113 DEWAELE RENE 02:35:44 SEM 131 01:24:10 01:24:10 5,779 10:23
333 20 BAYART THIERRY 02:35:47 V2M 32 01:24:13 01:05:15 RIO TINTO 5,777 10:23
334 112 DEVULDER JEAN LUC 02:35:57 V2M 33 01:24:23 01:05:25 A S P T T LILLE 5,771 10:24
335 369 JOSMIN ANNE 02:35:58 V1F 14 01:24:24 00:53:55 NON LICENCIE 5,770 10:24
336 85 DECOENE BENOIT 02:36:52 V2M 34 01:25:18 01:06:20 5,737 10:27
337 87 DECOENE PASCALE 02:36:52 V2F 8 01:25:18 00:49:00 5,737 10:27
338 70 COLIN RICHARD 02:37:12 V3M 8 01:25:38 00:54:11 A S U D 5,725 10:29
339 339 EHRENFELD ARNAUD 02:37:31 V1M 90 01:25:57 01:21:06 NON LICENCIE 5,714 10:30
340 122 DUMONT BERNARD 02:37:32 V1M 91 01:25:58 01:21:07 5,713 10:30
341 301 VALLARD MICHAEL 02:37:32 V1M 92 01:25:58 01:21:07 5,713 10:30
342 75 DARCHE FREDERIC 02:37:50 SEM 132 01:26:16 01:26:16 5,702 10:31
343 137 FRANCOIS LYDIE 02:39:13 V1F 15 01:27:39 00:57:10 5,653 10:37
344 98 DELLIAUX DELPHINE 02:39:14 SEF 33 01:27:40 01:02:25 TEAM TRAIL 62 5,652 10:37
345 78 DAVISTER MARYLINE 02:40:08 V2F 9 01:28:34 00:52:16 5,620 10:41
346 195 LECONTE JEAN CHARLES 02:40:23 SEM 133 01:28:49 01:28:49 5,612 10:42
347 170 HIRAUT FRANCK 02:40:41 V1M 93 01:29:07 01:24:16 5,601 10:43
348 389 VANTOUBOUT BENOIT 02:40:49 V1M 94 01:29:15 01:24:24 NON LICENCIE 5,596 10:43
349 253 PERRODIN VERONIQUE 02:41:02 V2F 10 01:29:28 00:53:10 OPAL TRAIL NATURE 5,589 10:44
350 235 MONTEUUIS DOMINIQUE 02:41:02 V2M 35 01:29:28 01:10:30 RIO TINTO 5,589 10:44
351 3 ALLOUCHERY SANDRINE 02:41:02 V1F 16 01:29:28 00:58:59 R C BLENDECQUES 5,589 10:44
352 16 BARBRY LUDOVIC 02:41:02 SEM 134 01:29:28 01:29:28 A S U D 5,589 10:44
353 269 RICHEZ TANGUY 02:41:02 SEM 135 01:29:28 01:29:28 5,589 10:44
354 56 CARON FLORIAN 02:41:03 SEM 136 01:29:29 01:29:29 5,588 10:44
355 374 DUVIN NICOLAS 02:41:04 SEM 137 01:29:30 01:29:30 NON LICENCIE 5,588 10:44
356 105 DERNONCOURT NATHALIE 02:41:18 V1F 17 01:29:44 00:59:15 A S P T T LILLE 5,580 10:45
357 245 NOWAK LAETITIA 02:41:20 V1F 18 01:29:46 00:59:17 5,579 10:45
358 264 REMOND CHRISTIAN 02:41:43 V1M 95 01:30:09 01:25:18 5,565 10:47
359 92 DECROIX AURORE 02:42:52 SEF 34 01:31:18 01:06:03 A S P T T LILLE 5,526 10:51
360 15 BARBAUT ROMUALD 02:44:21 V1M 96 01:32:47 01:27:56 5,476 10:57
361 397 BECUWE SANDRINE 02:44:47 V1F 19 01:33:13 01:02:44 5,462 10:59
362 316 VITA SANDORA 02:45:44 SEF 35 01:34:10 01:08:55 CLUB ALPIN AUBY 5,430 11:03
363 287 SCHELDEWAERT GILBERTE 02:46:07 V2F 11 01:34:33 00:58:15 5,418 11:04
364 96 DELATTRE ALINE 02:50:16 V1F 20 01:38:42 01:08:13 5,286 11:21
365 143 GIESE CHRISTOPHE 02:50:25 V1M 97 01:38:51 01:34:00 5,281 11:22
366 232 MESSEYNE GREGORY 02:50:25 SEM 138 01:38:51 01:38:51 5,281 11:22
367 296 TEINTURIER ANDREA 02:51:46 SEF 36 01:40:12 01:14:57 5,240 11:27
368 11 BAILLY SANDRINE 02:53:18 SEF 37 01:41:44 01:16:29 5,193 11:33
369 323 LESAGE Marion 02:53:37 SEF 38 01:42:03 01:16:48 NON LICENCIE 5,184 11:34
370 304 VAN BOVEN EDDY 02:56:26 V3M 9 01:44:52 01:13:25 RUNNERS EVERGEM 5,101 11:46
371 295 TAVERNE MARC 02:58:35 V1M 98 01:47:01 01:42:10 5,040 11:54
372 289 SENIS CHARLES 02:58:41 V1M 99 01:47:07 01:42:16 5,037 11:55
373 209 LEPREUX ELISABETH 02:58:59 SEF 39 01:47:25 01:22:10 5,028 11:56
374 210 LEPREUX THOMAS 02:59:00 SEM 139 01:47:26 01:47:26 5,028 11:56
375 318 WARIN AURELIE 03:04:05 SEF 40 01:52:31 01:27:16 4,889 12:16
376 125 DUVIVIER GREGORY 03:04:05 V1M 100 01:52:31 01:47:40 4,889 12:16
377 41 BOULDI NADIA 03:07:32 SEF 41 01:55:58 01:30:43 A S P T T LILLE 4,799 12:30
378 182 KERCKHOVE ANGELIQUE 03:18:22 SEF 42 02:06:48 01:41:33 4,537 13:13
379 127 DYCKE STEPHANIE 03:18:27 V1F 21 02:06:53 01:36:24 4,535 13:14